Time;durP1;ratioP1;P1;durP2;ratioP2;P2;SDS_P1;SDS_P2;PMS_P1;PMS_P2;Temp;Humidity;BMP_temperature;BMP_pressure;BME280_temperature;BME280_humidity;BME280_pressure;Samples;Min_cycle;Max_cycle;Signal;HPM_P1;HPM_P2
2023/12/12 00:01:05;;;;;;;40.60;32.15;;;;;;;;;;10023948;28;20129;-76
2023/12/12 00:05:58;;;;;;;36.35;28.60;;;;;;;;;;10024994;28;20132;-75
2023/12/12 00:10:49;;;;;;;40.97;30.45;;;;;;;;;;10024617;28;20089;-78
2023/12/12 00:15:41;;;;;;;33.30;29.60;;;;;;;;;;10024172;28;20389;-76
2023/12/12 00:20:33;;;;;;;34.50;27.38;;;;;;;;;;10025090;28;20492;-76
2023/12/12 00:25:25;;;;;;;36.50;28.75;;;;;;;;;;10024284;28;20153;-77
2023/12/12 00:30:17;;;;;;;34.50;28.08;;;;;;;;;;10023883;28;20535;-76
2023/12/12 00:35:12;;;;;;;32.92;26.20;;;;;;;;;;10030541;28;20480;-76
2023/12/12 00:40:04;;;;;;;33.25;25.67;;;;;;;;;;10030970;28;20088;-75
2023/12/12 00:44:56;;;;;;;30.92;22.70;;;;;;;;;;10031324;28;20069;-75
2023/12/12 00:49:48;;;;;;;30.23;23.58;;;;;;;;;;10030792;28;20050;-75
2023/12/12 00:54:40;;;;;;;48.20;35.25;;;;;;;;;;10030938;28;20531;-78
2023/12/12 00:59:32;;;;;;;37.33;27.80;;;;;;;;;;10031338;28;20050;-77
2023/12/12 01:04:23;;;;;;;46.60;36.35;;;;;;;;;;10031470;28;20053;-77
2023/12/12 01:09:16;;;;;;;42.67;35.63;;;;;;;;;;10030423;28;20074;-77
2023/12/12 01:14:07;;;;;;;45.80;29.05;;;;;;;;;;10030400;28;20061;-78
2023/12/12 01:18:59;;;;;;;32.08;26.60;;;;;;;;;;10030797;28;20057;-78
2023/12/12 01:23:53;;;;;;;23.30;19.92;;;;;;;;;;10029868;28;20464;-77
2023/12/12 01:28:45;;;;;;;33.08;26.27;;;;;;;;;;10030378;28;20061;-78
2023/12/12 01:33:37;;;;;;;29.92;24.63;;;;;;;;;;10029913;28;20096;-78
2023/12/12 01:38:30;;;;;;;29.05;19.83;;;;;;;;;;10029752;28;20137;-77
2023/12/12 01:43:27;;;;;;;28.80;21.67;;;;;;;;;;10028822;28;20100;-78
2023/12/12 01:48:20;;;;;;;30.98;24.15;;;;;;;;;;10029703;28;20061;-77
2023/12/12 01:53:13;;;;;;;30.55;25.55;;;;;;;;;;10028350;28;20061;-78
2023/12/12 01:58:05;;;;;;;35.17;27.52;;;;;;;;;;10029103;28;20037;-78
2023/12/12 02:02:57;;;;;;;32.80;26.95;;;;;;;;;;10028302;28;20047;-78
2023/12/12 02:07:51;;;;;;;37.25;29.75;;;;;;;;;;10026243;28;20046;-77
2023/12/12 02:12:43;;;;;;;39.88;28.35;;;;;;;;;;10026730;28;20145;-76
2023/12/12 02:17:35;;;;;;;41.55;30.30;;;;;;;;;;10028602;28;20055;-76
2023/12/12 02:22:27;;;;;;;35.42;25.20;;;;;;;;;;10028213;28;20121;-77
2023/12/12 02:27:19;;;;;;;34.80;25.95;;;;;;;;;;10028997;28;20077;-77
2023/12/12 02:32:11;;;;;;;36.65;27.23;;;;;;;;;;10027414;28;20080;-78
2023/12/12 02:37:03;;;;;;;30.05;23.67;;;;;;;;;;10027305;28;20104;-79
2023/12/12 02:41:55;;;;;;;25.83;19.48;;;;;;;;;;10027305;28;20430;-78
2023/12/12 02:46:47;;;;;;;41.90;30.45;;;;;;;;;;10027317;28;20120;-78
2023/12/12 02:51:39;;;;;;;33.00;26.15;;;;;;;;;;10026941;28;20046;-78
2023/12/12 02:56:34;;;;;;;37.58;26.40;;;;;;;;;;10027042;28;20103;-78
2023/12/12 03:01:25;;;;;;;29.00;23.45;;;;;;;;;;10026175;28;20073;-78
2023/12/12 03:06:18;;;;;;;32.90;24.13;;;;;;;;;;10026735;28;20049;-77
2023/12/12 03:11:09;;;;;;;33.60;26.95;;;;;;;;;;10025815;28;20085;-77
2023/12/12 03:16:02;;;;;;;32.47;27.42;;;;;;;;;;10026428;28;20145;-77
2023/12/12 03:20:54;;;;;;;33.55;26.13;;;;;;;;;;10025933;28;20323;-76
2023/12/12 03:25:46;;;;;;;37.25;27.52;;;;;;;;;;10026224;28;20077;-77
2023/12/12 03:30:37;;;;;;;30.60;25.90;;;;;;;;;;10026100;28;20060;-78
2023/12/12 03:35:30;;;;;;;33.72;26.95;;;;;;;;;;10025142;28;20075;-77
2023/12/12 03:40:21;;;;;;;30.33;25.42;;;;;;;;;;10025600;28;20054;-77
2023/12/12 03:45:14;;;;;;;34.13;25.48;;;;;;;;;;10025359;28;20137;-77
2023/12/12 03:50:06;;;;;;;43.38;29.40;;;;;;;;;;10025466;28;20050;-78
2023/12/12 03:54:58;;;;;;;47.83;29.05;;;;;;;;;;10025421;28;20133;-77
2023/12/12 03:59:50;;;;;;;177.65;28.15;;;;;;;;;;10025395;28;20054;-78
2023/12/12 04:04:42;;;;;;;79.00;28.40;;;;;;;;;;10024851;28;20060;-76
2023/12/12 04:09:34;;;;;;;130.73;25.00;;;;;;;;;;10030623;28;20078;-78
2023/12/12 04:14:26;;;;;;;59.30;21.35;;;;;;;;;;10032427;28;20086;-78
2023/12/12 04:19:18;;;;;;;44.13;20.02;;;;;;;;;;10031957;28;20042;-77
2023/12/12 04:24:10;;;;;;;34.08;25.80;;;;;;;;;;10032730;28;20129;-78
2023/12/12 04:29:04;;;;;;;29.13;22.50;;;;;;;;;;10032078;28;20053;-77
2023/12/12 04:33:56;;;;;;;28.30;23.17;;;;;;;;;;10032033;28;20134;-78
2023/12/12 04:38:48;;;;;;;38.25;28.00;;;;;;;;;;10031590;28;21411;-78
2023/12/12 04:43:41;;;;;;;37.08;25.98;;;;;;;;;;10031674;28;20126;-78
2023/12/12 04:48:32;;;;;;;33.05;26.40;;;;;;;;;;10032229;28;20169;-78
2023/12/12 04:53:24;;;;;;;32.70;24.38;;;;;;;;;;10031753;28;20045;-77
2023/12/12 04:58:16;;;;;;;31.75;24.95;;;;;;;;;;10031676;28;20072;-77
2023/12/12 05:03:08;;;;;;;37.13;25.88;;;;;;;;;;10030592;28;20141;-77
2023/12/12 05:08:00;;;;;;;54.08;40.03;;;;;;;;;;10030913;28;20054;-77
2023/12/12 05:12:52;;;;;;;40.33;29.20;;;;;;;;;;10029470;28;20041;-78
2023/12/12 05:17:44;;;;;;;52.67;37.53;;;;;;;;;;10029880;28;20079;-77
2023/12/12 05:22:36;;;;;;;45.72;29.15;;;;;;;;;;10029138;28;20061;-77
2023/12/12 05:27:27;;;;;;;48.17;31.95;;;;;;;;;;10029989;28;20470;-77
2023/12/12 05:32:20;;;;;;;45.28;34.47;;;;;;;;;;10029954;28;20476;-77
2023/12/12 05:37:12;;;;;;;46.70;33.78;;;;;;;;;;10029707;28;20084;-77
2023/12/12 05:42:04;;;;;;;47.35;35.08;;;;;;;;;;10028671;28;20062;-77
2023/12/12 05:46:55;;;;;;;57.20;36.88;;;;;;;;;;10029495;28;20046;-77
2023/12/12 05:51:47;;;;;;;66.93;46.55;;;;;;;;;;10028761;28;20124;-77
2023/12/12 05:56:43;;;;;;;32.75;21.85;;;;;;;;;;10029023;28;20077;-77
2023/12/12 06:01:34;;;;;;;22.17;15.32;;;;;;;;;;10028154;28;20133;-76
2023/12/12 06:06:26;;;;;;;23.55;16.83;;;;;;;;;;10028757;28;20054;-77
2023/12/12 06:11:21;;;;;;;24.42;17.08;;;;;;;;;;10027330;28;20042;-77
2023/12/12 06:16:13;;;;;;;28.48;19.13;;;;;;;;;;10028475;28;20104;-77
2023/12/12 06:21:09;;;;;;;31.00;23.17;;;;;;;;;;10028163;28;20052;-77
2023/12/12 06:26:03;;;;;;;43.45;30.65;;;;;;;;;;10028760;28;20053;-77
2023/12/12 06:30:55;;;;;;;41.17;26.52;;;;;;;;;;10026883;28;20046;-78
2023/12/12 06:35:48;;;;;;;36.05;29.95;;;;;;;;;;10027667;28;20049;-78
2023/12/12 06:40:40;;;;;;;41.03;27.85;;;;;;;;;;10027531;28;20155;-78
2023/12/12 06:45:32;;;;;;;42.25;27.83;;;;;;;;;;10026582;28;20092;-78
2023/12/12 06:50:24;;;;;;;39.13;28.52;;;;;;;;;;10027043;28;20042;-77
2023/12/12 06:55:17;;;;;;;40.17;32.28;;;;;;;;;;10026198;28;20140;-78
2023/12/12 07:00:09;;;;;;;65.00;43.10;;;;;;;;;;10026293;28;20076;-77
2023/12/12 07:05:02;;;;;;;51.63;36.10;;;;;;;;;;10027037;28;20049;-77
2023/12/12 07:09:53;;;;;;;37.13;28.38;;;;;;;;;;10026184;28;20045;-77
2023/12/12 07:14:51;;;;;;;55.38;42.85;;;;;;;;;;10025763;28;20132;-77
2023/12/12 07:19:43;;;;;;;37.67;31.60;;;;;;;;;;10025705;28;20049;-77
2023/12/12 07:24:35;;;;;;;48.97;31.30;;;;;;;;;;10026149;28;20473;-78
2023/12/12 07:29:27;;;;;;;41.40;30.95;;;;;;;;;;10025387;28;20152;-77
2023/12/12 07:34:20;;;;;;;44.22;32.13;;;;;;;;;;10026251;28;20358;-77
2023/12/12 07:39:12;;;;;;;220.30;153.65;;;;;;;;;;10024663;28;20104;-78
2023/12/12 07:44:04;;;;;;;73.45;57.30;;;;;;;;;;10025829;28;20063;-78
2023/12/12 07:48:56;;;;;;;48.95;35.67;;;;;;;;;;10025318;28;20108;-78
2023/12/12 07:53:48;;;;;;;46.67;31.45;;;;;;;;;;10025571;28;20483;-78
2023/12/12 07:58:40;;;;;;;36.53;31.20;;;;;;;;;;10024329;28;20052;-78
2023/12/12 08:03:32;;;;;;;46.65;32.60;;;;;;;;;;10025068;28;20408;-76
2023/12/12 08:08:23;;;;;;;40.90;32.42;;;;;;;;;;10024949;28;20510;-78
2023/12/12 08:13:15;;;;;;;37.13;30.48;;;;;;;;;;10024182;28;20054;-78
2023/12/12 08:18:09;;;;;;;38.92;30.38;;;;;;;;;;10023944;28;20054;-77
2023/12/12 08:23:01;;;;;;;39.50;31.58;;;;;;;;;;10025089;28;20038;-78
2023/12/12 08:27:53;;;;;;;37.92;30.17;;;;;;;;;;10024661;28;20045;-77
2023/12/12 08:32:45;;;;;;;39.53;31.27;;;;;;;;;;10024906;28;20553;-78
2023/12/12 08:37:38;;;;;;;45.97;33.63;;;;;;;;;;10024807;28;20498;-79
2023/12/12 08:42:30;;;;;;;42.90;32.13;;;;;;;;;;10024673;28;20058;-78
2023/12/12 08:47:22;;;;;;;35.30;30.05;;;;;;;;;;10023942;28;20038;-77
2023/12/12 08:52:16;;;;;;;37.50;29.77;;;;;;;;;;10023883;28;20362;-78
2023/12/12 08:57:09;;;;;;;43.70;29.95;;;;;;;;;;10031991;28;20436;-78
2023/12/12 09:02:01;;;;;;;40.13;32.08;;;;;;;;;;10032283;28;20504;-78
2023/12/12 09:06:54;;;;;;;31.20;25.55;;;;;;;;;;10031651;28;20057;-76
2023/12/12 09:11:49;;;;;;;47.50;38.55;;;;;;;;;;10030746;28;20077;-78
2023/12/12 09:16:41;;;;;;;53.90;40.72;;;;;;;;;;10031042;28;20384;-80
2023/12/12 09:21:33;;;;;;;36.08;26.13;;;;;;;;;;10030436;28;20053;-78
2023/12/12 09:26:25;;;;;;;26.48;21.92;;;;;;;;;;10030250;28;20057;-78
2023/12/12 09:31:25;;;;;;;24.60;21.58;;;;;;;;;;10029855;28;20037;-78
2023/12/12 09:36:17;;;;;;;23.25;19.38;;;;;;;;;;10030393;28;20109;-78
2023/12/12 09:41:17;;;;;;;24.05;21.08;;;;;;;;;;10029414;28;20060;-78
2023/12/12 09:46:09;;;;;;;22.95;19.08;;;;;;;;;;10030072;28;20129;-79
2023/12/12 09:51:03;;;;;;;22.63;17.35;;;;;;;;;;10029863;28;20090;-74
2023/12/12 09:55:55;;;;;;;21.20;17.48;;;;;;;;;;10028631;28;20504;-79
2023/12/12 10:00:47;;;;;;;29.90;21.83;;;;;;;;;;10029025;28;20045;-78
2023/12/12 10:05:39;;;;;;;35.85;22.77;;;;;;;;;;10026567;28;20112;-79
2023/12/12 10:10:31;;;;;;;26.60;21.67;;;;;;;;;;10027262;28;20104;-79
2023/12/12 10:15:27;;;;;;;30.98;23.60;;;;;;;;;;10028161;28;20056;-79
2023/12/12 10:20:25;;;;;;;21.85;19.42;;;;;;;;;;10028715;28;20134;-78
2023/12/12 10:25:17;;;;;;;25.33;16.98;;;;;;;;;;10027893;28;20050;-79
2023/12/12 10:30:11;;;;;;;24.38;17.00;;;;;;;;;;10027478;28;20077;-77
2023/12/12 10:35:04;;;;;;;23.27;18.77;;;;;;;;;;10027464;28;20049;-79
2023/12/12 10:40:12;;;;;;;23.63;20.45;;;;;;;;;;10026156;28;20216;-78
2023/12/12 10:45:06;;;;;;;23.63;18.02;;;;;;;;;;10027426;28;20046;-78
2023/12/12 10:50:01;;;;;;;23.20;17.60;;;;;;;;;;10026289;28;20380;-78
2023/12/12 10:54:54;;;;;;;22.83;18.48;;;;;;;;;;10027468;28;20045;-78
2023/12/12 10:59:47;;;;;;;25.23;18.38;;;;;;;;;;10024911;28;20061;-78
2023/12/12 11:04:55;;;;;;;23.35;17.95;;;;;;;;;;10026139;28;20042;-78
2023/12/12 11:09:47;;;;;;;23.60;19.23;;;;;;;;;;10024007;28;20420;-78
2023/12/12 11:14:39;;;;;;;23.38;20.88;;;;;;;;;;10025786;28;20064;-79
2023/12/12 11:19:32;;;;;;;24.83;21.20;;;;;;;;;;10026062;28;20104;-77
2023/12/12 11:25:01;;;;;;;32.30;23.90;;;;;;;;;;10024760;28;20142;-77
2023/12/12 11:29:54;;;;;;;31.73;23.05;;;;;;;;;;10024324;28;20053;-77
2023/12/12 11:34:46;;;;;;;28.08;21.85;;;;;;;;;;10025584;28;20161;-78
2023/12/12 11:39:41;;;;;;;29.30;25.58;;;;;;;;;;10025732;28;20129;-78
2023/12/12 11:44:46;;;;;;;30.45;22.42;;;;;;;;;;10026024;28;20045;-78
2023/12/12 11:49:37;;;;;;;33.92;23.73;;;;;;;;;;10025303;28;20046;-78
2023/12/12 11:54:29;;;;;;;28.50;25.38;;;;;;;;;;10025620;28;20362;-78
2023/12/12 11:59:22;;;;;;;31.52;25.13;;;;;;;;;;10025326;28;20358;-78
2023/12/12 12:04:14;;;;;;;28.35;25.33;;;;;;;;;;10024588;28;20144;-79
2023/12/12 12:09:06;;;;;;;30.88;26.17;;;;;;;;;;10024753;28;20046;-78
2023/12/12 12:13:58;;;;;;;30.08;26.83;;;;;;;;;;10023292;28;20053;-78
2023/12/12 12:18:50;;;;;;;35.42;27.77;;;;;;;;;;10025233;28;20136;-78
2023/12/12 12:23:42;;;;;;;33.90;30.23;;;;;;;;;;10024840;28;20081;-78
2023/12/12 12:28:35;;;;;;;31.50;28.10;;;;;;;;;;10026632;28;20473;-79
2023/12/12 12:33:34;;;;;;;33.70;28.23;;;;;;;;;;10032263;28;20495;-78
2023/12/12 12:38:27;;;;;;;43.40;30.48;;;;;;;;;;10031884;28;20095;-78
2023/12/12 12:43:22;;;;;;;33.08;29.48;;;;;;;;;;10031848;28;20046;-79
2023/12/12 12:48:15;;;;;;;33.15;28.80;;;;;;;;;;10031675;28;20141;-78
2023/12/12 12:53:11;;;;;;;36.45;30.20;;;;;;;;;;10031021;28;20056;-78
2023/12/12 12:58:03;;;;;;;32.60;28.20;;;;;;;;;;10030914;28;20050;-78
2023/12/12 13:02:56;;;;;;;36.47;30.27;;;;;;;;;;10030508;28;20073;-78
2023/12/12 13:07:48;;;;;;;36.55;29.35;;;;;;;;;;10030485;28;20045;-78
2023/12/12 13:12:40;;;;;;;32.78;29.13;;;;;;;;;;10031044;28;20100;-79
2023/12/12 13:17:33;;;;;;;35.15;30.05;;;;;;;;;;10030629;28;20053;-79
2023/12/12 13:22:25;;;;;;;36.25;30.73;;;;;;;;;;10030247;28;20052;-77
2023/12/12 13:27:16;;;;;;;40.92;32.05;;;;;;;;;;10030285;28;20046;-79
2023/12/12 13:32:08;;;;;;;33.75;29.25;;;;;;;;;;10029697;28;20053;-78
2023/12/12 13:37:00;;;;;;;38.78;32.58;;;;;;;;;;10029602;28;20045;-78
2023/12/12 13:41:52;;;;;;;32.60;28.38;;;;;;;;;;10028842;28;20128;-77
2023/12/12 13:46:44;;;;;;;33.22;27.13;;;;;;;;;;10028552;28;20342;-78
2023/12/12 13:51:36;;;;;;;45.50;31.13;;;;;;;;;;10028895;28;20046;-78
2023/12/12 13:56:38;;;;;;;40.72;29.90;;;;;;;;;;10029281;28;20145;-78
2023/12/12 14:01:30;;;;;;;34.88;29.42;;;;;;;;;;10028545;28;20396;-78
2023/12/12 14:06:21;;;;;;;39.13;31.65;;;;;;;;;;10027737;28;20149;-76
2023/12/12 14:11:13;;;;;;;30.40;27.20;;;;;;;;;;10027961;28;20392;-77
2023/12/12 14:16:05;;;;;;;36.08;29.38;;;;;;;;;;10028190;28;20260;-78
2023/12/12 14:20:57;;;;;;;37.88;28.92;;;;;;;;;;10028787;28;20050;-78
2023/12/12 14:25:49;;;;;;;36.03;31.80;;;;;;;;;;10027973;28;20042;-78
2023/12/12 14:30:41;;;;;;;34.08;30.65;;;;;;;;;;10027234;28;20476;-78
2023/12/12 14:35:33;;;;;;;40.92;33.08;;;;;;;;;;10027203;28;20042;-78
2023/12/12 14:40:25;;;;;;;38.15;32.10;;;;;;;;;;10026279;28;20058;-78
2023/12/12 14:45:18;;;;;;;37.03;33.03;;;;;;;;;;10025492;28;20369;-78
2023/12/12 14:50:10;;;;;;;42.60;34.42;;;;;;;;;;10024624;28;20089;-77
2023/12/12 14:55:03;;;;;;;41.40;33.70;;;;;;;;;;10024432;28;20430;-77
2023/12/12 14:59:54;;;;;;;42.97;35.20;;;;;;;;;;10024941;28;20108;-77
2023/12/12 15:04:46;;;;;;;41.05;36.08;;;;;;;;;;10024629;28;20081;-78
2023/12/12 15:09:39;;;;;;;41.83;35.45;;;;;;;;;;10024194;28;20050;-78
2023/12/12 15:14:30;;;;;;;42.95;38.42;;;;;;;;;;10023374;28;20432;-79
2023/12/12 15:19:22;;;;;;;42.47;34.60;;;;;;;;;;10024763;28;20369;-78
2023/12/12 15:24:14;;;;;;;38.60;32.33;;;;;;;;;;10024152;28;20038;-79
2023/12/12 15:29:08;;;;;;;41.15;34.92;;;;;;;;;;10024561;28;20572;-78
2023/12/12 15:34:00;;;;;;;40.47;35.53;;;;;;;;;;10023812;28;20050;-78
2023/12/12 15:38:52;;;;;;;47.43;39.37;;;;;;;;;;9984670;28;1126935;-78
2023/12/12 15:43:44;;;;;;;39.20;34.90;;;;;;;;;;10025524;28;20049;-78
2023/12/12 15:48:36;;;;;;;42.33;36.47;;;;;;;;;;10025337;28;20053;-77
2023/12/12 15:53:28;;;;;;;43.47;37.33;;;;;;;;;;10025341;28;20050;-78
2023/12/12 15:58:20;;;;;;;43.03;36.67;;;;;;;;;;10024250;28;20042;-78
2023/12/12 16:03:12;;;;;;;41.67;35.80;;;;;;;;;;10025067;28;20038;-77
2023/12/12 16:08:08;;;;;;;45.88;39.47;;;;;;;;;;10025780;28;20034;-77
2023/12/12 16:13:01;;;;;;;65.18;49.95;;;;;;;;;;10025340;28;20477;-77
2023/12/12 16:17:54;;;;;;;56.53;49.10;;;;;;;;;;10023801;28;20053;-77
2023/12/12 16:22:45;;;;;;;54.10;46.45;;;;;;;;;;10024560;28;20457;-77
2023/12/12 16:27:42;;;;;;;50.40;43.28;;;;;;;;;;10024371;28;20050;-78
2023/12/12 16:32:34;;;;;;;52.28;39.47;;;;;;;;;;10024100;28;20100;-77
2023/12/12 16:37:27;;;;;;;53.90;45.17;;;;;;;;;;10022703;28;20074;-78
2023/12/12 16:42:19;;;;;;;173.30;115.45;;;;;;;;;;10023880;28;20077;-78
2023/12/12 16:47:11;;;;;;;48.35;43.20;;;;;;;;;;10024310;28;20113;-78
2023/12/12 16:52:03;;;;;;;64.63;55.28;;;;;;;;;;10024259;28;20092;-78
2023/12/12 16:56:58;;;;;;;44.05;39.30;;;;;;;;;;10023782;28;20120;-78
2023/12/12 17:01:52;;;;;;;47.13;41.75;;;;;;;;;;10024145;28;20448;-78
2023/12/12 17:06:44;;;;;;;51.67;41.35;;;;;;;;;;10023693;28;20369;-78
2023/12/12 17:11:36;;;;;;;48.83;42.88;;;;;;;;;;10021257;28;20441;-78
2023/12/12 17:16:31;;;;;;;54.25;48.15;;;;;;;;;;10028540;28;20049;-78
2023/12/12 17:21:23;;;;;;;50.97;42.90;;;;;;;;;;10030172;28;20042;-78
2023/12/12 17:26:16;;;;;;;48.60;43.38;;;;;;;;;;10030249;28;20060;-76
2023/12/12 17:31:08;;;;;;;61.90;53.15;;;;;;;;;;10029916;28;20046;-78
2023/12/12 17:36:00;;;;;;;61.95;53.83;;;;;;;;;;10029756;28;20137;-77
2023/12/12 17:40:52;;;;;;;43.72;38.22;;;;;;;;;;10029077;28;20132;-78
2023/12/12 17:45:44;;;;;;;39.60;34.90;;;;;;;;;;10029511;28;20054;-76
2023/12/12 17:50:35;;;;;;;49.13;40.53;;;;;;;;;;10029692;28;20054;-78
2023/12/12 17:55:27;;;;;;;66.32;48.88;;;;;;;;;;10029443;28;20085;-78
2023/12/12 18:00:19;;;;;;;48.13;41.20;;;;;;;;;;10027720;28;20441;-76
2023/12/12 18:05:14;;;;;;;57.30;44.83;;;;;;;;;;10028822;28;20054;-75
2023/12/12 18:10:07;;;;;;;45.67;40.00;;;;;;;;;;10026633;28;20407;-77
2023/12/12 18:14:59;;;;;;;49.80;38.22;;;;;;;;;;10028496;28;20046;-76
2023/12/12 18:19:52;;;;;;;49.67;42.28;;;;;;;;;;10027883;28;20057;-75
2023/12/12 18:24:44;;;;;;;50.00;40.80;;;;;;;;;;10027841;28;20085;-77
2023/12/12 18:29:36;;;;;;;49.75;40.22;;;;;;;;;;10027418;28;20081;-77
2023/12/12 18:34:28;;;;;;;48.22;34.95;;;;;;;;;;10026443;28;20053;-76
2023/12/12 18:39:22;;;;;;;41.08;33.47;;;;;;;;;;10026764;28;20104;-76
2023/12/12 18:44:14;;;;;;;34.47;29.58;;;;;;;;;;10027626;28;20104;-76
2023/12/12 18:49:06;;;;;;;39.67;32.28;;;;;;;;;;10027493;28;20046;-76
2023/12/12 18:53:58;;;;;;;50.35;38.25;;;;;;;;;;10027139;28;20112;-76
2023/12/12 18:58:52;;;;;;;68.97;49.72;;;;;;;;;;10026320;28;20084;-76
2023/12/12 19:03:44;;;;;;;35.35;28.05;;;;;;;;;;10026265;28;20049;-76
2023/12/12 19:08:36;;;;;;;45.83;33.83;;;;;;;;;;10026164;28;20178;-75
2023/12/12 19:13:33;;;;;;;45.15;39.75;;;;;;;;;;10026788;28;20651;-76
2023/12/12 19:18:26;;;;;;;72.32;54.17;;;;;;;;;;10026110;28;20077;-77
2023/12/12 19:23:18;;;;;;;63.85;47.63;;;;;;;;;;10026220;28;20048;-77
2023/12/12 19:28:10;;;;;;;56.83;43.72;;;;;;;;;;10025967;28;20042;-77
2023/12/12 19:33:02;;;;;;;55.53;46.55;;;;;;;;;;10025575;28;20056;-77
2023/12/12 19:37:54;;;;;;;62.17;47.97;;;;;;;;;;10024924;28;20077;-75
2023/12/12 19:42:47;;;;;;;60.85;49.13;;;;;;;;;;10025575;28;20053;-77
2023/12/12 19:47:39;;;;;;;67.78;52.33;;;;;;;;;;10024856;28;20412;-77
2023/12/12 19:52:32;;;;;;;60.88;50.00;;;;;;;;;;10025650;28;20057;-76
2023/12/12 19:57:24;;;;;;;70.18;52.15;;;;;;;;;;10025543;28;20057;-77
2023/12/12 20:02:16;;;;;;;66.03;52.47;;;;;;;;;;10024792;28;20039;-77
2023/12/12 20:07:13;;;;;;;62.03;51.15;;;;;;;;;;10025106;28;20052;-76
2023/12/12 20:12:06;;;;;;;67.65;49.83;;;;;;;;;;10024831;28;20472;-80
2023/12/12 20:16:58;;;;;;;64.53;50.55;;;;;;;;;;10025921;28;20499;-77
2023/12/12 20:21:52;;;;;;;61.25;48.92;;;;;;;;;;10025112;28;20042;-78
2023/12/12 20:26:45;;;;;;;55.60;47.03;;;;;;;;;;10025424;28;20133;-76
2023/12/12 20:31:38;;;;;;;61.70;50.85;;;;;;;;;;10024449;28;20065;-76
2023/12/12 20:36:30;;;;;;;55.58;45.03;;;;;;;;;;10024922;28;20406;-77
2023/12/12 20:41:22;;;;;;;68.35;53.08;;;;;;;;;;10022603;28;20077;-78
2023/12/12 20:46:14;;;;;;;67.68;55.63;;;;;;;;;;10024705;28;20061;-77
2023/12/12 20:51:06;;;;;;;76.85;53.20;;;;;;;;;;10029423;28;20054;-77
2023/12/12 20:55:59;;;;;;;70.18;52.00;;;;;;;;;;10032798;28;20050;-77
2023/12/12 21:00:51;;;;;;;74.03;55.03;;;;;;;;;;10032195;28;20477;-77
2023/12/12 21:05:43;;;;;;;65.47;52.42;;;;;;;;;;10032397;28;20057;-76
2023/12/12 21:10:37;;;;;;;58.40;46.88;;;;;;;;;;10031330;28;20096;-76
2023/12/12 21:15:29;;;;;;;72.70;53.17;;;;;;;;;;10030471;28;20054;-75
2023/12/12 21:20:21;;;;;;;72.47;53.33;;;;;;;;;;10030084;28;20050;-75
2023/12/12 21:25:13;;;;;;;69.82;51.72;;;;;;;;;;10029401;28;20445;-76
2023/12/12 21:30:06;;;;;;;73.25;51.30;;;;;;;;;;10029958;28;20046;-76
2023/12/12 21:35:00;;;;;;;62.28;47.88;;;;;;;;;;10030476;28;20058;-76
2023/12/12 21:39:53;;;;;;;70.97;51.17;;;;;;;;;;10029656;28;20088;-76
2023/12/12 21:44:45;;;;;;;72.63;51.47;;;;;;;;;;10029388;28;20052;-76
2023/12/12 21:49:40;;;;;;;79.28;55.63;;;;;;;;;;10029541;28;20148;-75
2023/12/12 21:54:32;;;;;;;67.15;50.15;;;;;;;;;;10029120;28;20053;-76
2023/12/12 21:59:24;;;;;;;60.40;46.47;;;;;;;;;;10029134;28;20049;-76
2023/12/12 22:04:17;;;;;;;63.00;51.40;;;;;;;;;;10028940;28;20064;-75
2023/12/12 22:09:10;;;;;;;69.35;52.70;;;;;;;;;;10028836;28;20446;-76
2023/12/12 22:14:02;;;;;;;86.35;60.42;;;;;;;;;;10028730;28;20049;-75
2023/12/12 22:18:56;;;;;;;89.53;61.58;;;;;;;;;;10028950;28;20100;-75
2023/12/12 22:23:52;;;;;;;91.05;61.22;;;;;;;;;;10028333;28;20046;-77
2023/12/12 22:28:44;;;;;;;91.10;62.38;;;;;;;;;;10028220;28;20128;-77
2023/12/12 22:33:36;;;;;;;79.80;56.60;;;;;;;;;;10028147;28;20081;-78
2023/12/12 22:38:30;;;;;;;78.15;58.10;;;;;;;;;;10027671;28;20396;-77
2023/12/12 22:43:22;;;;;;;88.30;56.53;;;;;;;;;;10027314;28;20068;-77
2023/12/12 22:48:14;;;;;;;85.53;58.45;;;;;;;;;;10027560;28;20049;-78
2023/12/12 22:53:06;;;;;;;82.40;58.30;;;;;;;;;;10027637;28;20049;-78
2023/12/12 22:57:58;;;;;;;74.57;52.00;;;;;;;;;;10027457;28;20061;-77
2023/12/12 23:02:50;;;;;;;71.38;53.75;;;;;;;;;;10027055;28;20460;-75
2023/12/12 23:07:42;;;;;;;67.50;54.95;;;;;;;;;;10027514;28;20065;-78
2023/12/12 23:12:34;;;;;;;69.00;55.58;;;;;;;;;;10026387;28;20064;-77
2023/12/12 23:17:26;;;;;;;71.53;51.45;;;;;;;;;;10026963;28;20041;-76
2023/12/12 23:22:18;;;;;;;78.57;52.35;;;;;;;;;;10026721;28;20051;-76
2023/12/12 23:27:10;;;;;;;67.68;47.70;;;;;;;;;;10026469;28;20065;-77
2023/12/12 23:32:02;;;;;;;62.20;47.35;;;;;;;;;;10026393;28;20544;-76
2023/12/12 23:36:54;;;;;;;66.15;52.25;;;;;;;;;;10026567;28;20053;-76
2023/12/12 23:41:46;;;;;;;65.75;49.75;;;;;;;;;;10025668;28;20057;-76
2023/12/12 23:46:41;;;;;;;69.70;53.63;;;;;;;;;;10025112;28;20050;-77
2023/12/12 23:51:33;;;;;;;67.18;49.38;;;;;;;;;;10026207;28;20060;-76
2023/12/12 23:56:25;;;;;;;68.00;50.95;;;;;;;;;;10026119;28;20046;-77
